Airfield :
LOGIN :

Register | Disclaimer

   EN    FR    IT 

 










Legend :    VFR   Marginal VFR   IFR   Intensive IFR   Very Intensive IFR
Visi :
Ceiling :
>= 8 km
>= 3000ft
5 to 8 km
1000 to 3000 ft
1500m to 5 km
500 to 1000 ft
800 to 1500m
200 to 500 ft
< 800m
< 200 ft
Symbols :   Thunderstorms  Fog  Heavy snow  Heavy precipitations  Wind > 20 kt
SIGMETs :     Misc.  Thunderstorms  Icing  Turbulence  Mountain Waves  Volcanic Ashes







- Airport Elevation : 56 ft
- IATA code : ILY
- Download approach charts


EGPI - Islay

CURRENT METAR :
  • 241550Z AUTO 14014KT 090V160 9999 NCD 18/14 Q1015

EXPIRED METARs :
  • 241520Z AUTO 14014KT 090V160 9999 NCD 18/14 Q1015
  • 241450Z AUTO 14014KT 100V160 9999 NCD 18/14 Q1015
  • 241420Z AUTO 14015KT 090V160 9999 NCD 18/14 Q1015
  • 241350Z AUTO 14015KT 100V160 9999 NCD 18/14 Q1016
  • 241320Z AUTO 14017KT 090V160 9999 NCD 18/14 Q1015

TAF TAF EGPI
Valid from the 24 at 15:00 until the 24 at 18:00 UTC


241355Z 2415/2418 14015KT 9999 FEW015
No reported NOTAMs for that airfield.



MET'MAP, your aeronautical weather chart ! - Copyright ORBIFLY December 2007 - Disclaimer

ORBIFLY MET'MAP TEAM :

Programming & Development : Alexandra Zaïnal
Concept & Development : Baudouin d'Aumeries
Co-Development & Prog : Marc-Olivier Méhu
Technical & hardware support : Manuel Goepfert

Contact : metmap@orbifly.com




SOURCES & CREDITS :

   NOAA